sensor_id;sensor_type;location;lat;lon;timestamp;temperature;humidity
51765;DHT22;37835;53.256;6.456;2023-07-24T00:00:27;17.20;99.90
51765;DHT22;37835;53.256;6.456;2023-07-24T00:02:53;17.80;99.90
51765;DHT22;37835;53.256;6.456;2023-07-24T00:05:19;17.10;99.90
51765;DHT22;37835;53.256;6.456;2023-07-24T00:07:45;17.10;99.90
51765;DHT22;37835;53.256;6.456;2023-07-24T00:10:10;17.10;99.90
51765;DHT22;37835;53.256;6.456;2023-07-24T00:12:36;17.10;99.90
51765;DHT22;37835;53.256;6.456;2023-07-24T00:15:02;17.00;99.90
51765;DHT22;37835;53.256;6.456;2023-07-24T00:17:28;17.00;99.90
51765;DHT22;37835;53.256;6.456;2023-07-24T00:19:53;17.00;99.90
51765;DHT22;37835;53.256;6.456;2023-07-24T00:22:19;17.00;99.90
51765;DHT22;37835;53.256;6.456;2023-07-24T00:24:44;17.00;99.90
51765;DHT22;37835;53.256;6.456;2023-07-24T00:27:10;17.00;99.90
51765;DHT22;37835;53.256;6.456;2023-07-24T00:29:35;17.00;99.90
51765;DHT22;37835;53.256;6.456;2023-07-24T00:32:01;17.00;99.90
51765;DHT22;37835;53.256;6.456;2023-07-24T00:34:26;17.10;99.90
51765;DHT22;37835;53.256;6.456;2023-07-24T00:36:52;17.10;99.90
51765;DHT22;37835;53.256;6.456;2023-07-24T00:39:18;17.10;99.90
51765;DHT22;37835;53.256;6.456;2023-07-24T00:41:43;17.10;99.90
51765;DHT22;37835;53.256;6.456;2023-07-24T00:44:09;17.10;99.90
51765;DHT22;37835;53.256;6.456;2023-07-24T00:46:35;17.10;99.90
51765;DHT22;37835;53.256;6.456;2023-07-24T00:49:02;17.10;99.90
51765;DHT22;37835;53.256;6.456;2023-07-24T00:51:28;17.10;99.90
51765;DHT22;37835;53.256;6.456;2023-07-24T00:54:01;17.10;99.90
51765;DHT22;37835;53.256;6.456;2023-07-24T00:56:29;17.10;99.90
51765;DHT22;37835;53.256;6.456;2023-07-24T00:58:55;17.10;99.90
51765;DHT22;37835;53.256;6.456;2023-07-24T01:01:22;17.10;99.90
51765;DHT22;37835;53.256;6.456;2023-07-24T01:03:48;17.10;99.90
51765;DHT22;37835;53.256;6.456;2023-07-24T01:06:14;17.00;99.90
51765;DHT22;37835;53.256;6.456;2023-07-24T01:08:39;17.00;99.90
51765;DHT22;37835;53.256;6.456;2023-07-24T01:11:30;17.00;99.90
51765;DHT22;37835;53.256;6.456;2023-07-24T01:14:12;17.00;99.90
51765;DHT22;37835;53.256;6.456;2023-07-24T01:16:41;17.00;99.90
51765;DHT22;37835;53.256;6.456;2023-07-24T01:19:13;16.90;99.90
51765;DHT22;37835;53.256;6.456;2023-07-24T01:21:58;16.90;99.90
51765;DHT22;37835;53.256;6.456;2023-07-24T01:25:00;16.90;99.90
51765;DHT22;37835;53.256;6.456;2023-07-24T01:27:27;16.90;99.90
51765;DHT22;37835;53.256;6.456;2023-07-24T01:29:52;16.80;99.90
51765;DHT22;37835;53.256;6.456;2023-07-24T01:32:21;16.80;99.90
51765;DHT22;37835;53.256;6.456;2023-07-24T01:34:47;16.80;99.90
51765;DHT22;37835;53.256;6.456;2023-07-24T01:37:13;16.70;99.90
51765;DHT22;37835;53.256;6.456;2023-07-24T01:39:41;16.70;99.90
51765;DHT22;37835;53.256;6.456;2023-07-24T01:42:07;16.70;99.90
51765;DHT22;37835;53.256;6.456;2023-07-24T01:44:33;17.40;99.90
51765;DHT22;37835;53.256;6.456;2023-07-24T01:46:58;16.60;99.90
51765;DHT22;37835;53.256;6.456;2023-07-24T01:49:24;16.60;99.90
51765;DHT22;37835;53.256;6.456;2023-07-24T01:51:50;16.60;99.90
51765;DHT22;37835;53.256;6.456;2023-07-24T01:54:15;16.60;99.90
51765;DHT22;37835;53.256;6.456;2023-07-24T01:56:41;16.60;99.90
51765;DHT22;37835;53.256;6.456;2023-07-24T01:59:07;16.60;99.90
51765;DHT22;37835;53.256;6.456;2023-07-24T02:01:32;16.60;99.90
51765;DHT22;37835;53.256;6.456;2023-07-24T02:03:58;16.60;99.90
51765;DHT22;37835;53.256;6.456;2023-07-24T02:06:23;16.50;99.90
51765;DHT22;37835;53.256;6.456;2023-07-24T02:08:49;16.50;99.90
51765;DHT22;37835;53.256;6.456;2023-07-24T02:11:17;16.50;99.90
51765;DHT22;37835;53.256;6.456;2023-07-24T02:13:46;16.50;99.90
51765;DHT22;37835;53.256;6.456;2023-07-24T02:16:13;16.50;99.90
51765;DHT22;37835;53.256;6.456;2023-07-24T02:18:41;16.50;99.90
51765;DHT22;37835;53.256;6.456;2023-07-24T02:21:07;16.50;99.90
51765;DHT22;37835;53.256;6.456;2023-07-24T02:23:32;16.40;99.90
51765;DHT22;37835;53.256;6.456;2023-07-24T02:25:58;16.40;99.90
51765;DHT22;37835;53.256;6.456;2023-07-24T02:28:23;16.40;99.90
51765;DHT22;37835;53.256;6.456;2023-07-24T02:30:49;16.30;99.90
51765;DHT22;37835;53.256;6.456;2023-07-24T02:33:17;16.30;99.90
51765;DHT22;37835;53.256;6.456;2023-07-24T02:35:43;16.30;99.90
51765;DHT22;37835;53.256;6.456;2023-07-24T02:38:09;16.30;99.90
51765;DHT22;37835;53.256;6.456;2023-07-24T02:40:35;16.30;99.90
51765;DHT22;37835;53.256;6.456;2023-07-24T02:43:01;16.30;99.90
51765;DHT22;37835;53.256;6.456;2023-07-24T02:45:27;16.30;99.90
51765;DHT22;37835;53.256;6.456;2023-07-24T02:47:52;16.30;99.90
51765;DHT22;37835;53.256;6.456;2023-07-24T02:50:18;16.30;99.90
51765;DHT22;37835;53.256;6.456;2023-07-24T02:52:43;16.30;99.90
51765;DHT22;37835;53.256;6.456;2023-07-24T02:55:09;16.30;99.90
51765;DHT22;37835;53.256;6.456;2023-07-24T02:57:35;16.30;99.90
51765;DHT22;37835;53.256;6.456;2023-07-24T03:00:00;16.40;99.90
51765;DHT22;37835;53.256;6.456;2023-07-24T03:02:26;16.40;99.90
51765;DHT22;37835;53.256;6.456;2023-07-24T03:04:52;16.40;99.90
51765;DHT22;37835;53.256;6.456;2023-07-24T03:07:17;16.40;99.90
51765;DHT22;37835;53.256;6.456;2023-07-24T03:09:43;16.40;99.90
51765;DHT22;37835;53.256;6.456;2023-07-24T03:12:08;16.40;99.90
51765;DHT22;37835;53.256;6.456;2023-07-24T03:14:34;16.40;99.90
51765;DHT22;37835;53.256;6.456;2023-07-24T03:16:59;16.40;99.90
51765;DHT22;37835;53.256;6.456;2023-07-24T03:19:25;16.50;99.90
51765;DHT22;37835;53.256;6.456;2023-07-24T03:21:51;16.50;99.90
51765;DHT22;37835;53.256;6.456;2023-07-24T03:24:17;16.50;99.90
51765;DHT22;37835;53.256;6.456;2023-07-24T03:26:42;16.50;99.90
51765;DHT22;37835;53.256;6.456;2023-07-24T03:29:08;16.50;99.90
51765;DHT22;37835;53.256;6.456;2023-07-24T03:31:34;16.60;99.90
51765;DHT22;37835;53.256;6.456;2023-07-24T03:33:59;16.60;99.90
51765;DHT22;37835;53.256;6.456;2023-07-24T03:36:25;16.60;99.90
51765;DHT22;37835;53.256;6.456;2023-07-24T03:38:50;16.60;99.90
51765;DHT22;37835;53.256;6.456;2023-07-24T03:41:16;16.60;99.90
51765;DHT22;37835;53.256;6.456;2023-07-24T03:43:41;16.60;99.90
51765;DHT22;37835;53.256;6.456;2023-07-24T03:46:07;16.60;99.90
51765;DHT22;37835;53.256;6.456;2023-07-24T03:48:33;16.60;99.90
51765;DHT22;37835;53.256;6.456;2023-07-24T03:51:00;16.60;99.90
51765;DHT22;37835;53.256;6.456;2023-07-24T03:53:26;16.60;99.90
51765;DHT22;37835;53.256;6.456;2023-07-24T03:55:52;16.60;99.90
51765;DHT22;37835;53.256;6.456;2023-07-24T03:58:18;16.70;99.90
51765;DHT22;37835;53.256;6.456;2023-07-24T04:00:44;16.70;99.90
51765;DHT22;37835;53.256;6.456;2023-07-24T04:03:10;16.70;99.90
51765;DHT22;37835;53.256;6.456;2023-07-24T04:05:36;16.70;99.90
51765;DHT22;37835;53.256;6.456;2023-07-24T04:08:02;16.70;99.90
51765;DHT22;37835;53.256;6.456;2023-07-24T04:10:28;16.70;99.90
51765;DHT22;37835;53.256;6.456;2023-07-24T04:12:54;16.70;99.90
51765;DHT22;37835;53.256;6.456;2023-07-24T04:15:20;16.70;99.90
51765;DHT22;37835;53.256;6.456;2023-07-24T04:17:45;16.70;99.90
51765;DHT22;37835;53.256;6.456;2023-07-24T04:20:11;16.70;99.90
51765;DHT22;37835;53.256;6.456;2023-07-24T04:22:36;16.80;99.90
51765;DHT22;37835;53.256;6.456;2023-07-24T04:25:02;16.70;99.90
51765;DHT22;37835;53.256;6.456;2023-07-24T04:27:28;16.80;99.90
51765;DHT22;37835;53.256;6.456;2023-07-24T04:29:53;16.80;99.90
51765;DHT22;37835;53.256;6.456;2023-07-24T04:32:19;16.80;99.90
51765;DHT22;37835;53.256;6.456;2023-07-24T04:34:44;16.80;99.90
51765;DHT22;37835;53.256;6.456;2023-07-24T04:37:10;16.80;99.90
51765;DHT22;37835;53.256;6.456;2023-07-24T04:39:38;16.80;99.90
51765;DHT22;37835;53.256;6.456;2023-07-24T04:42:04;16.80;99.90
51765;DHT22;37835;53.256;6.456;2023-07-24T04:44:30;16.80;99.90
51765;DHT22;37835;53.256;6.456;2023-07-24T04:46:57;16.80;99.90
51765;DHT22;37835;53.256;6.456;2023-07-24T04:49:23;16.80;99.90
51765;DHT22;37835;53.256;6.456;2023-07-24T04:51:50;16.80;99.90
51765;DHT22;37835;53.256;6.456;2023-07-24T04:54:16;16.80;99.90
51765;DHT22;37835;53.256;6.456;2023-07-24T04:56:41;16.90;99.90
51765;DHT22;37835;53.256;6.456;2023-07-24T04:59:07;16.90;99.90
51765;DHT22;37835;53.256;6.456;2023-07-24T05:01:32;16.90;99.90
51765;DHT22;37835;53.256;6.456;2023-07-24T05:03:58;16.90;99.90
51765;DHT22;37835;53.256;6.456;2023-07-24T05:06:23;16.90;99.90
51765;DHT22;37835;53.256;6.456;2023-07-24T05:08:49;16.90;99.90
51765;DHT22;37835;53.256;6.456;2023-07-24T05:11:14;16.90;99.90
51765;DHT22;37835;53.256;6.456;2023-07-24T05:13:40;16.90;99.90
51765;DHT22;37835;53.256;6.456;2023-07-24T05:16:06;16.90;99.90
51765;DHT22;37835;53.256;6.456;2023-07-24T05:18:31;16.90;99.90
51765;DHT22;37835;53.256;6.456;2023-07-24T05:20:57;17.00;99.90
51765;DHT22;37835;53.256;6.456;2023-07-24T05:23:22;17.00;99.90
51765;DHT22;37835;53.256;6.456;2023-07-24T05:25:56;17.00;99.90
51765;DHT22;37835;53.256;6.456;2023-07-24T05:28:23;17.00;99.90
51765;DHT22;37835;53.256;6.456;2023-07-24T05:30:48;17.00;99.90
51765;DHT22;37835;53.256;6.456;2023-07-24T05:33:14;17.00;99.90
51765;DHT22;37835;53.256;6.456;2023-07-24T05:35:39;17.00;99.90
51765;DHT22;37835;53.256;6.456;2023-07-24T05:38:05;17.10;99.90
51765;DHT22;37835;53.256;6.456;2023-07-24T05:40:30;17.10;99.90
51765;DHT22;37835;53.256;6.456;2023-07-24T05:42:56;17.10;99.90
51765;DHT22;37835;53.256;6.456;2023-07-24T05:45:21;17.10;99.90
51765;DHT22;37835;53.256;6.456;2023-07-24T05:47:47;17.10;99.90
51765;DHT22;37835;53.256;6.456;2023-07-24T05:50:13;17.10;99.90
51765;DHT22;37835;53.256;6.456;2023-07-24T05:52:41;17.10;99.90
51765;DHT22;37835;53.256;6.456;2023-07-24T05:55:07;17.10;99.90
51765;DHT22;37835;53.256;6.456;2023-07-24T05:57:33;17.10;99.90
51765;DHT22;37835;53.256;6.456;2023-07-24T05:59:58;17.10;99.90
51765;DHT22;37835;53.256;6.456;2023-07-24T06:02:24;17.00;99.90
51765;DHT22;37835;53.256;6.456;2023-07-24T06:04:49;17.10;99.90
51765;DHT22;37835;53.256;6.456;2023-07-24T06:07:15;17.10;99.90
51765;DHT22;37835;53.256;6.456;2023-07-24T06:09:40;17.10;99.90
51765;DHT22;37835;53.256;6.456;2023-07-24T06:12:06;17.10;99.90
51765;DHT22;37835;53.256;6.456;2023-07-24T06:14:32;17.10;99.90
51765;DHT22;37835;53.256;6.456;2023-07-24T06:16:57;17.10;99.90
51765;DHT22;37835;53.256;6.456;2023-07-24T06:19:23;17.10;99.90
51765;DHT22;37835;53.256;6.456;2023-07-24T06:21:48;17.10;99.90
51765;DHT22;37835;53.256;6.456;2023-07-24T06:24:14;17.20;99.90
51765;DHT22;37835;53.256;6.456;2023-07-24T06:26:40;17.20;99.90
51765;DHT22;37835;53.256;6.456;2023-07-24T06:29:05;17.20;99.90
51765;DHT22;37835;53.256;6.456;2023-07-24T06:31:31;17.30;99.90
51765;DHT22;37835;53.256;6.456;2023-07-24T06:33:56;17.30;99.90
51765;DHT22;37835;53.256;6.456;2023-07-24T06:36:22;17.30;99.90
51765;DHT22;37835;53.256;6.456;2023-07-24T06:38:47;17.30;99.90
51765;DHT22;37835;53.256;6.456;2023-07-24T06:41:16;17.50;99.90
51765;DHT22;37835;53.256;6.456;2023-07-24T06:43:42;17.40;99.90
51765;DHT22;37835;53.256;6.456;2023-07-24T06:46:08;17.50;99.90
51765;DHT22;37835;53.256;6.456;2023-07-24T06:48:33;17.50;99.90
51765;DHT22;37835;53.256;6.456;2023-07-24T06:50:59;17.60;99.90
51765;DHT22;37835;53.256;6.456;2023-07-24T06:53:24;17.60;99.90
51765;DHT22;37835;53.256;6.456;2023-07-24T06:55:50;17.60;99.90
51765;DHT22;37835;53.256;6.456;2023-07-24T06:58:16;17.60;99.90
51765;DHT22;37835;53.256;6.456;2023-07-24T07:00:41;17.70;99.90
51765;DHT22;37835;53.256;6.456;2023-07-24T07:03:07;17.70;99.90
51765;DHT22;37835;53.256;6.456;2023-07-24T07:05:32;17.80;99.90
51765;DHT22;37835;53.256;6.456;2023-07-24T07:07:58;17.70;99.90
51765;DHT22;37835;53.256;6.456;2023-07-24T07:10:23;17.80;99.90
51765;DHT22;37835;53.256;6.456;2023-07-24T07:12:49;17.90;99.90
51765;DHT22;37835;53.256;6.456;2023-07-24T07:15:15;17.90;99.90
51765;DHT22;37835;53.256;6.456;2023-07-24T07:17:41;17.90;99.90
51765;DHT22;37835;53.256;6.456;2023-07-24T07:20:07;18.00;99.90
51765;DHT22;37835;53.256;6.456;2023-07-24T07:22:33;18.00;99.90
51765;DHT22;37835;53.256;6.456;2023-07-24T07:24:58;18.00;99.90
51765;DHT22;37835;53.256;6.456;2023-07-24T07:27:24;18.00;99.90
51765;DHT22;37835;53.256;6.456;2023-07-24T07:29:50;18.10;99.90
51765;DHT22;37835;53.256;6.456;2023-07-24T07:32:15;18.10;99.90
51765;DHT22;37835;53.256;6.456;2023-07-24T07:34:42;18.20;99.90
51765;DHT22;37835;53.256;6.456;2023-07-24T07:37:07;18.20;99.90
51765;DHT22;37835;53.256;6.456;2023-07-24T07:39:33;18.20;99.90
51765;DHT22;37835;53.256;6.456;2023-07-24T07:41:58;18.30;99.90
51765;DHT22;37835;53.256;6.456;2023-07-24T07:44:24;18.40;99.90
51765;DHT22;37835;53.256;6.456;2023-07-24T07:46:49;18.40;99.90
51765;DHT22;37835;53.256;6.456;2023-07-24T07:49:15;18.40;99.90
51765;DHT22;37835;53.256;6.456;2023-07-24T07:51:41;18.40;99.90
51765;DHT22;37835;53.256;6.456;2023-07-24T07:54:06;18.50;99.90
51765;DHT22;37835;53.256;6.456;2023-07-24T07:56:32;18.60;99.90
51765;DHT22;37835;53.256;6.456;2023-07-24T07:58:57;18.60;99.90
51765;DHT22;37835;53.256;6.456;2023-07-24T08:01:23;18.70;99.90
51765;DHT22;37835;53.256;6.456;2023-07-24T08:03:48;18.80;99.90
51765;DHT22;37835;53.256;6.456;2023-07-24T08:06:14;18.70;99.90
51765;DHT22;37835;53.256;6.456;2023-07-24T08:08:40;18.90;99.90
51765;DHT22;37835;53.256;6.456;2023-07-24T08:11:06;18.90;99.90
51765;DHT22;37835;53.256;6.456;2023-07-24T08:13:33;18.90;99.90
51765;DHT22;37835;53.256;6.456;2023-07-24T08:15:59;19.00;99.90
51765;DHT22;37835;53.256;6.456;2023-07-24T08:18:25;19.00;99.90
51765;DHT22;37835;53.256;6.456;2023-07-24T08:20:51;19.00;99.90
51765;DHT22;37835;53.256;6.456;2023-07-24T08:23:16;19.00;99.90
51765;DHT22;37835;53.256;6.456;2023-07-24T08:25:55;19.10;99.90
51765;DHT22;37835;53.256;6.456;2023-07-24T08:28:21;19.20;99.90
51765;DHT22;37835;53.256;6.456;2023-07-24T08:30:56;19.20;99.90
51765;DHT22;37835;53.256;6.456;2023-07-24T08:33:21;19.30;99.90
51765;DHT22;37835;53.256;6.456;2023-07-24T08:35:47;19.30;99.90
51765;DHT22;37835;53.256;6.456;2023-07-24T08:38:13;19.40;99.90
51765;DHT22;37835;53.256;6.456;2023-07-24T08:40:38;19.50;99.90
51765;DHT22;37835;53.256;6.456;2023-07-24T08:43:04;19.40;99.90
51765;DHT22;37835;53.256;6.456;2023-07-24T08:45:30;19.50;99.90
51765;DHT22;37835;53.256;6.456;2023-07-24T08:47:57;19.50;99.90
51765;DHT22;37835;53.256;6.456;2023-07-24T08:50:23;19.50;99.90
51765;DHT22;37835;53.256;6.456;2023-07-24T08:52:50;19.60;99.90
51765;DHT22;37835;53.256;6.456;2023-07-24T08:55:16;19.70;99.90
51765;DHT22;37835;53.256;6.456;2023-07-24T08:57:42;19.70;99.90
51765;DHT22;37835;53.256;6.456;2023-07-24T09:00:08;19.80;99.90
51765;DHT22;37835;53.256;6.456;2023-07-24T09:02:35;19.80;99.90
51765;DHT22;37835;53.256;6.456;2023-07-24T09:05:01;19.90;99.90
51765;DHT22;37835;53.256;6.456;2023-07-24T09:07:27;19.90;99.90
51765;DHT22;37835;53.256;6.456;2023-07-24T09:09:52;20.00;99.90
51765;DHT22;37835;53.256;6.456;2023-07-24T09:12:18;20.00;99.90
51765;DHT22;37835;53.256;6.456;2023-07-24T09:14:44;20.00;99.90
51765;DHT22;37835;53.256;6.456;2023-07-24T09:17:11;20.00;99.90
51765;DHT22;37835;53.256;6.456;2023-07-24T09:19:37;20.00;99.90
51765;DHT22;37835;53.256;6.456;2023-07-24T09:22:14;20.00;99.90
51765;DHT22;37835;53.256;6.456;2023-07-24T09:24:52;20.00;99.90
51765;DHT22;37835;53.256;6.456;2023-07-24T09:27:18;20.00;99.90
51765;DHT22;37835;53.256;6.456;2023-07-24T09:29:44;20.10;99.90
51765;DHT22;37835;53.256;6.456;2023-07-24T09:32:24;20.20;99.90
51765;DHT22;37835;53.256;6.456;2023-07-24T09:34:50;20.20;99.90
51765;DHT22;37835;53.256;6.456;2023-07-24T09:37:46;20.30;99.90
51765;DHT22;37835;53.256;6.456;2023-07-24T09:40:13;20.40;99.90
51765;DHT22;37835;53.256;6.456;2023-07-24T09:42:39;20.50;99.90
51765;DHT22;37835;53.256;6.456;2023-07-24T09:45:08;20.60;99.90
51765;DHT22;37835;53.256;6.456;2023-07-24T09:47:35;20.70;99.90
51765;DHT22;37835;53.256;6.456;2023-07-24T09:50:03;20.90;99.90
51765;DHT22;37835;53.256;6.456;2023-07-24T09:52:30;21.00;99.90
51765;DHT22;37835;53.256;6.456;2023-07-24T09:55:12;21.10;99.90
51765;DHT22;37835;53.256;6.456;2023-07-24T09:57:41;21.20;99.90
51765;DHT22;37835;53.256;6.456;2023-07-24T10:00:09;21.30;99.90
51765;DHT22;37835;53.256;6.456;2023-07-24T10:02:36;21.30;99.90
51765;DHT22;37835;53.256;6.456;2023-07-24T10:05:02;21.40;99.90
51765;DHT22;37835;53.256;6.456;2023-07-24T10:07:29;21.50;99.90
51765;DHT22;37835;53.256;6.456;2023-07-24T10:09:55;21.50;99.90
51765;DHT22;37835;53.256;6.456;2023-07-24T10:12:22;21.50;99.90
51765;DHT22;37835;53.256;6.456;2023-07-24T10:14:48;21.50;99.90
51765;DHT22;37835;53.256;6.456;2023-07-24T10:17:14;21.60;99.90
51765;DHT22;37835;53.256;6.456;2023-07-24T10:19:41;21.50;99.90
51765;DHT22;37835;53.256;6.456;2023-07-24T10:22:09;21.60;99.90
51765;DHT22;37835;53.256;6.456;2023-07-24T10:24:35;21.40;99.90
51765;DHT22;37835;53.256;6.456;2023-07-24T10:27:03;21.30;99.90
51765;DHT22;37835;53.256;6.456;2023-07-24T10:29:29;20.90;99.90
51765;DHT22;37835;53.256;6.456;2023-07-24T10:31:59;20.70;99.90
51765;DHT22;37835;53.256;6.456;2023-07-24T10:34:24;20.50;99.90
51765;DHT22;37835;53.256;6.456;2023-07-24T10:36:50;20.30;99.90
51765;DHT22;37835;53.256;6.456;2023-07-24T10:39:17;20.20;99.90
51765;DHT22;37835;53.256;6.456;2023-07-24T10:41:46;20.10;99.90
51765;DHT22;37835;53.256;6.456;2023-07-24T10:44:12;20.00;99.90
51765;DHT22;37835;53.256;6.456;2023-07-24T10:46:39;20.00;99.90
51765;DHT22;37835;53.256;6.456;2023-07-24T10:49:05;20.00;99.90
51765;DHT22;37835;53.256;6.456;2023-07-24T10:51:31;20.20;99.90
51765;DHT22;37835;53.256;6.456;2023-07-24T10:54:03;20.00;99.90
51765;DHT22;37835;53.256;6.456;2023-07-24T10:56:29;20.00;99.90
51765;DHT22;37835;53.256;6.456;2023-07-24T10:58:55;20.00;99.90
51765;DHT22;37835;53.256;6.456;2023-07-24T11:01:20;19.90;99.90
51765;DHT22;37835;53.256;6.456;2023-07-24T11:03:46;19.70;99.90
51765;DHT22;37835;53.256;6.456;2023-07-24T11:06:14;19.70;99.90
51765;DHT22;37835;53.256;6.456;2023-07-24T11:08:40;19.50;99.90
51765;DHT22;37835;53.256;6.456;2023-07-24T11:11:07;19.50;99.90
51765;DHT22;37835;53.256;6.456;2023-07-24T11:13:32;19.40;99.90
51765;DHT22;37835;53.256;6.456;2023-07-24T11:16:04;19.30;99.90
51765;DHT22;37835;53.256;6.456;2023-07-24T11:18:30;19.40;99.90
51765;DHT22;37835;53.256;6.456;2023-07-24T11:20:56;19.40;99.90
51765;DHT22;37835;53.256;6.456;2023-07-24T11:23:22;19.40;99.90
51765;DHT22;37835;53.256;6.456;2023-07-24T11:25:52;19.50;99.90
51765;DHT22;37835;53.256;6.456;2023-07-24T11:28:18;19.60;99.90
51765;DHT22;37835;53.256;6.456;2023-07-24T11:30:44;19.70;99.90
51765;DHT22;37835;53.256;6.456;2023-07-24T11:33:11;19.80;99.90
51765;DHT22;37835;53.256;6.456;2023-07-24T11:35:39;19.90;99.90
51765;DHT22;37835;53.256;6.456;2023-07-24T11:38:07;20.00;99.90
51765;DHT22;37835;53.256;6.456;2023-07-24T11:40:43;20.10;99.90
51765;DHT22;37835;53.256;6.456;2023-07-24T11:43:21;20.00;99.90
51765;DHT22;37835;53.256;6.456;2023-07-24T11:45:47;20.20;99.90
51765;DHT22;37835;53.256;6.456;2023-07-24T11:48:23;20.20;99.90
51765;DHT22;37835;53.256;6.456;2023-07-24T11:50:56;20.30;99.90
51765;DHT22;37835;53.256;6.456;2023-07-24T11:55:53;20.30;99.90
51765;DHT22;37835;53.256;6.456;2023-07-24T11:58:19;20.40;99.90
51765;DHT22;37835;53.256;6.456;2023-07-24T12:00:47;20.30;99.90
51765;DHT22;37835;53.256;6.456;2023-07-24T12:03:14;20.30;99.90
51765;DHT22;37835;53.256;6.456;2023-07-24T12:05:43;20.20;99.90
51765;DHT22;37835;53.256;6.456;2023-07-24T12:08:10;20.50;99.90
51765;DHT22;37835;53.256;6.456;2023-07-24T12:10:37;20.20;99.90
51765;DHT22;37835;53.256;6.456;2023-07-24T12:13:03;20.10;99.90
51765;DHT22;37835;53.256;6.456;2023-07-24T12:15:28;20.10;99.90
51765;DHT22;37835;53.256;6.456;2023-07-24T12:17:54;20.00;99.90
51765;DHT22;37835;53.256;6.456;2023-07-24T12:20:22;20.00;99.90
51765;DHT22;37835;53.256;6.456;2023-07-24T12:22:47;20.00;99.90
51765;DHT22;37835;53.256;6.456;2023-07-24T12:25:13;19.90;99.90
51765;DHT22;37835;53.256;6.456;2023-07-24T12:27:39;19.90;99.90
51765;DHT22;37835;53.256;6.456;2023-07-24T12:30:07;19.90;99.90
51765;DHT22;37835;53.256;6.456;2023-07-24T12:32:32;19.90;99.90
51765;DHT22;37835;53.256;6.456;2023-07-24T12:34:58;19.90;99.90
51765;DHT22;37835;53.256;6.456;2023-07-24T12:37:23;19.80;99.90
51765;DHT22;37835;53.256;6.456;2023-07-24T12:39:49;19.70;99.90
51765;DHT22;37835;53.256;6.456;2023-07-24T12:42:15;19.60;99.90
51765;DHT22;37835;53.256;6.456;2023-07-24T12:44:41;19.60;99.90
51765;DHT22;37835;53.256;6.456;2023-07-24T12:47:07;19.50;99.90
51765;DHT22;37835;53.256;6.456;2023-07-24T12:49:33;19.40;99.90
51765;DHT22;37835;53.256;6.456;2023-07-24T12:51:59;19.40;99.90
51765;DHT22;37835;53.256;6.456;2023-07-24T12:54:25;19.30;99.90
51765;DHT22;37835;53.256;6.456;2023-07-24T12:56:51;19.30;99.90
51765;DHT22;37835;53.256;6.456;2023-07-24T12:59:17;19.30;99.90
51765;DHT22;37835;53.256;6.456;2023-07-24T13:01:43;19.30;99.90
51765;DHT22;37835;53.256;6.456;2023-07-24T13:04:09;19.30;99.90
51765;DHT22;37835;53.256;6.456;2023-07-24T13:06:35;19.40;99.90
51765;DHT22;37835;53.256;6.456;2023-07-24T13:09:00;19.40;99.90
51765;DHT22;37835;53.256;6.456;2023-07-24T13:11:26;19.40;99.90
51765;DHT22;37835;53.256;6.456;2023-07-24T13:13:53;19.30;99.90
51765;DHT22;37835;53.256;6.456;2023-07-24T13:16:19;19.30;99.90
51765;DHT22;37835;53.256;6.456;2023-07-24T13:18:45;19.30;99.90
51765;DHT22;37835;53.256;6.456;2023-07-24T13:21:11;19.20;99.90
51765;DHT22;37835;53.256;6.456;2023-07-24T13:23:36;19.20;99.90
51765;DHT22;37835;53.256;6.456;2023-07-24T13:26:02;19.20;99.90
51765;DHT22;37835;53.256;6.456;2023-07-24T13:28:28;19.20;99.90
51765;DHT22;37835;53.256;6.456;2023-07-24T13:30:54;19.20;99.90
51765;DHT22;37835;53.256;6.456;2023-07-24T13:33:19;19.40;99.90
51765;DHT22;37835;53.256;6.456;2023-07-24T13:35:47;19.50;99.90
51765;DHT22;37835;53.256;6.456;2023-07-24T13:38:13;19.70;99.90
51765;DHT22;37835;53.256;6.456;2023-07-24T13:40:39;19.80;99.90
51765;DHT22;37835;53.256;6.456;2023-07-24T13:43:05;19.80;99.90
51765;DHT22;37835;53.256;6.456;2023-07-24T13:45:31;19.80;99.90
51765;DHT22;37835;53.256;6.456;2023-07-24T13:47:57;19.80;99.90
51765;DHT22;37835;53.256;6.456;2023-07-24T13:50:24;19.80;99.90
51765;DHT22;37835;53.256;6.456;2023-07-24T13:52:49;19.70;99.90
51765;DHT22;37835;53.256;6.456;2023-07-24T13:55:15;19.60;99.90
51765;DHT22;37835;53.256;6.456;2023-07-24T13:57:41;19.60;99.90
51765;DHT22;37835;53.256;6.456;2023-07-24T14:00:07;19.60;99.90
51765;DHT22;37835;53.256;6.456;2023-07-24T14:02:32;19.50;99.90
51765;DHT22;37835;53.256;6.456;2023-07-24T14:04:58;19.50;99.90
51765;DHT22;37835;53.256;6.456;2023-07-24T14:07:24;19.30;99.90
51765;DHT22;37835;53.256;6.456;2023-07-24T14:09:50;19.20;99.90
51765;DHT22;37835;53.256;6.456;2023-07-24T14:12:15;19.10;99.90
51765;DHT22;37835;53.256;6.456;2023-07-24T14:14:41;19.00;99.90
51765;DHT22;37835;53.256;6.456;2023-07-24T14:17:07;18.90;99.90
51765;DHT22;37835;53.256;6.456;2023-07-24T14:19:32;18.90;99.90
51765;DHT22;37835;53.256;6.456;2023-07-24T14:21:58;18.90;99.90
51765;DHT22;37835;53.256;6.456;2023-07-24T14:24:23;18.90;99.90
51765;DHT22;37835;53.256;6.456;2023-07-24T14:29:15;18.70;99.90
51765;DHT22;37835;53.256;6.456;2023-07-24T14:31:43;18.70;99.90
51765;DHT22;37835;53.256;6.456;2023-07-24T14:34:09;18.60;99.90
51765;DHT22;37835;53.256;6.456;2023-07-24T14:39:04;18.40;99.90
51765;DHT22;37835;53.256;6.456;2023-07-24T14:41:29;18.40;99.90
51765;DHT22;37835;53.256;6.456;2023-07-24T14:43:55;18.20;99.90
51765;DHT22;37835;53.256;6.456;2023-07-24T14:46:21;18.20;99.90
51765;DHT22;37835;53.256;6.456;2023-07-24T14:48:46;18.10;99.90
51765;DHT22;37835;53.256;6.456;2023-07-24T14:51:12;18.10;99.90
51765;DHT22;37835;53.256;6.456;2023-07-24T14:53:38;18.10;99.90
51765;DHT22;37835;53.256;6.456;2023-07-24T14:56:04;18.10;99.90
51765;DHT22;37835;53.256;6.456;2023-07-24T14:58:29;18.10;99.90
51765;DHT22;37835;53.256;6.456;2023-07-24T15:00:55;18.00;99.90
51765;DHT22;37835;53.256;6.456;2023-07-24T15:03:21;18.10;99.90
51765;DHT22;37835;53.256;6.456;2023-07-24T15:05:47;18.60;99.90
51765;DHT22;37835;53.256;6.456;2023-07-24T15:08:12;18.10;99.90
51765;DHT22;37835;53.256;6.456;2023-07-24T15:10:38;18.00;99.90
51765;DHT22;37835;53.256;6.456;2023-07-24T15:13:03;17.90;99.90
51765;DHT22;37835;53.256;6.456;2023-07-24T15:15:29;17.90;99.90
51765;DHT22;37835;53.256;6.456;2023-07-24T15:17:56;17.90;99.90
51765;DHT22;37835;53.256;6.456;2023-07-24T15:20:21;18.00;99.90
51765;DHT22;37835;53.256;6.456;2023-07-24T15:22:47;18.00;99.90
51765;DHT22;37835;53.256;6.456;2023-07-24T15:25:13;18.00;99.90
51765;DHT22;37835;53.256;6.456;2023-07-24T15:27:39;18.00;99.90
51765;DHT22;37835;53.256;6.456;2023-07-24T15:30:05;18.00;99.90
51765;DHT22;37835;53.256;6.456;2023-07-24T15:32:31;18.00;99.90